地図

経路データ

SID SEASON NUMBER BASIN SUBBASIN NAME ISO_TIME NATURE LAT LON WMO_WIND WMO_PRES WMO_AGENCY TRACK_TYPE DIST2LAND LANDFALL IFLAG USA_AGENCY USA_ATCF_ID USA_LAT USA_LON USA_RECORD USA_STATUS USA_WIND USA_PRES USA_SSHS USA_R34_NE USA_R34_SE USA_R34_SW USA_R34_NW USA_R50_NE USA_R50_SE USA_R50_SW USA_R50_NW USA_R64_NE USA_R64_SE USA_R64_SW USA_R64_NW USA_POCI USA_ROCI USA_RMW USA_EYE TOKYO_LAT TOKYO_LON TOKYO_GRADE TOKYO_WIND TOKYO_PRES TOKYO_R50_DIR TOKYO_R50_LONG TOKYO_R50_SHORT TOKYO_R30_DIR TOKYO_R30_LONG TOKYO_R30_SHORT TOKYO_LAND CMA_LAT CMA_LON CMA_CAT CMA_WIND CMA_PRES HKO_LAT HKO_LON HKO_CAT HKO_WIND HKO_PRES NEWDELHI_LAT NEWDELHI_LON NEWDELHI_GRADE NEWDELHI_WIND NEWDELHI_PRES NEWDELHI_CI NEWDELHI_DP NEWDELHI_POCI REUNION_LAT REUNION_LON REUNION_TYPE REUNION_WIND REUNION_PRES REUNION_TNUM REUNION_CI REUNION_RMW REUNION_R34_NE REUNION_R34_SE REUNION_R34_SW REUNION_R34_NW REUNION_R50_NE REUNION_R50_SE REUNION_R50_SW REUNION_R50_NW REUNION_R64_NE REUNION_R64_SE REUNION_R64_SW REUNION_R64_NW BOM_LAT BOM_LON BOM_TYPE BOM_WIND BOM_PRES BOM_TNUM BOM_CI BOM_RMW BOM_R34_NE BOM_R34_SE BOM_R34_SW BOM_R34_NW BOM_R50_NE BOM_R50_SE BOM_R50_SW BOM_R50_NW BOM_R64_NE BOM_R64_SE BOM_R64_SW BOM_R64_NW BOM_ROCI BOM_POCI BOM_EYE BOM_POS_METHOD BOM_PRES_METHOD NADI_LAT NADI_LON NADI_CAT NADI_WIND NADI_PRES WELLINGTON_LAT WELLINGTON_LON WELLINGTON_WIND WELLINGTON_PRES DS824_LAT DS824_LON DS824_STAGE DS824_WIND DS824_PRES TD9636_LAT TD9636_LON TD9636_STAGE TD9636_WIND TD9636_PRES TD9635_LAT TD9635_LON TD9635_WIND TD9635_PRES TD9635_ROCI NEUMANN_LAT NEUMANN_LON NEUMANN_CLASS NEUMANN_WIND NEUMANN_PRES MLC_LAT MLC_LON MLC_CLASS MLC_WIND MLC_PRES USA_GUST BOM_GUST BOM_GUST_PER REUNION_GUST REUNION_GUST_PER USA_SEAHGT USA_SEARAD_NE USA_SEARAD_SE USA_SEARAD_SW USA_SEARAD_NW STORM_SPEED STORM_DIR
1913243N29288 1913 45 NA NA NOT_NAMED 1913-08-30 12:00:00 TS 28.5000 -72.5000 40 hurdat_atl main 664 664 O_____________ hurdat_atl AL041913 28.5000 -72.5000 TS 40 0 11 355
1913243N29288 1913 45 NA NA NOT_NAMED 1913-08-30 15:00:00 TS 29.0275 -72.5499 main 696 686 P_____________ AL041913 29.0275 -72.5499 TS 40 0 10 355
1913243N29288 1913 45 NA NA NOT_NAMED 1913-08-30 18:00:00 TS 29.5000 -72.6000 40 hurdat_atl main 686 648 O_____________ hurdat_atl AL041913 29.5000 -72.6000 TS 40 0 9 354
1913243N29288 1913 45 NA NA NOT_NAMED 1913-08-30 21:00:00 TS 29.8800 -72.6501 main 643 615 P_____________ AL041913 29.8800 -72.6501 TS 42 0 7 353
1913243N29288 1913 45 NA NA NOT_NAMED 1913-08-31 00:00:00 TS 30.2000 -72.7000 45 hurdat_atl main 615 587 O_____________ hurdat_atl AL041913 30.2000 -72.7000 TS 45 0 6 353
1913243N29288 1913 45 NA NA NOT_NAMED 1913-08-31 03:00:00 TS 30.5150 -72.7426 main 587 555 P_____________ AL041913 30.5150 -72.7426 TS 45 0 6 352
1913243N29288 1913 45 NA NA NOT_NAMED 1913-08-31 06:00:00 TS 30.8000 -72.8000 45 hurdat_atl main 555 523 O_____________ hurdat_atl AL041913 30.8000 -72.8000 TS 45 0 6 347
1913243N29288 1913 45 NA NA NOT_NAMED 1913-08-31 09:00:00 TS 31.0650 -72.8925 main 523 499 P_____________ AL041913 31.0650 -72.8925 TS 47 0 5 341
1913243N29288 1913 45 NA NA NOT_NAMED 1913-08-31 12:00:00 TS 31.3000 -73.0000 50 hurdat_atl main 499 476 O_____________ hurdat_atl AL041913 31.3000 -73.0000 TS 50 0 5 339
1913243N29288 1913 45 NA NA NOT_NAMED 1913-08-31 15:00:00 TS 31.5150 -73.1000 main 476 453 P_____________ AL041913 31.5150 -73.1000 TS 50 0 4 337
1913243N29288 1913 45 NA NA NOT_NAMED 1913-08-31 18:00:00 TS 31.7000 -73.2000 50 hurdat_atl main 453 430 O_____________ hurdat_atl AL041913 31.7000 -73.2000 TS 50 0 4 335
1913243N29288 1913 45 NA NA NOT_NAMED 1913-08-31 21:00:00 TS 31.8650 -73.2926 main 430 416 P_____________ AL041913 31.8650 -73.2926 TS 52 0 3 331
1913243N29288 1913 45 NA NA NOT_NAMED 1913-09-01 00:00:00 TS 32.0000 -73.4000 55 hurdat_atl main 416 401 O_____________ hurdat_atl AL041913 32.0000 -73.4000 TS 55 0 3 318
1913243N29288 1913 45 NA NA NOT_NAMED 1913-09-01 03:00:00 TS 32.1075 -73.5425 main 401 380 P_____________ AL041913 32.1075 -73.5425 TS 57 0 3 308
1913243N29288 1913 45 NA NA NOT_NAMED 1913-09-01 06:00:00 TS 32.2000 -73.7000 60 hurdat_atl main 380 366 O_____________ hurdat_atl AL041913 32.2000 -73.7000 TS 60 0 3 306
1913243N29288 1913 45 NA NA NOT_NAMED 1913-09-01 09:00:00 TS 32.3000 -73.8575 main 359 345 P_____________ AL041913 32.3000 -73.8575 TS 62 0 3 308
1913243N29288 1913 45 NA NA NOT_NAMED 1913-09-01 12:00:00 TS 32.4000 -74.0000 65 hurdat_atl main 345 330 O_____________ hurdat_atl AL041913 32.4000 -74.0000 HU 65 1 3 311
1913243N29288 1913 45 NA NA NOT_NAMED 1913-09-01 15:00:00 TS 32.4925 -74.1150 main 330 316 P_____________ AL041913 32.4925 -74.1150 HU 67 1 3 320
1913243N29288 1913 45 NA NA NOT_NAMED 1913-09-01 18:00:00 TS 32.6000 -74.2000 70 hurdat_atl main 316 307 O_____________ hurdat_atl AL041913 32.6000 -74.2000 HU 70 1 3 336
1913243N29288 1913 45 NA NA NOT_NAMED 1913-09-01 21:00:00 TS 32.7425 -74.2501 main 301 285 P_____________ AL041913 32.7425 -74.2501 HU 72 1 3 344
1913243N29288 1913 45 NA NA NOT_NAMED 1913-09-02 00:00:00 TS 32.9000 -74.3000 75 hurdat_atl main 285 270 O_____________ hurdat_atl AL041913 32.9000 -74.3000 HU 75 1 3 340
1913243N29288 1913 45 NA NA NOT_NAMED 1913-09-02 03:00:00 TS 33.0500 -74.3850 main 270 248 P_____________ AL041913 33.0500 -74.3850 HU 75 1 3 331
1913243N29288 1913 45 NA NA NOT_NAMED 1913-09-02 06:00:00 TS 33.2000 -74.5000 75 hurdat_atl main 248 234 O_____________ hurdat_atl AL041913 33.2000 -74.5000 HU 75 1 4 324
1913243N29288 1913 45 NA NA NOT_NAMED 1913-09-02 09:00:00 TS 33.3425 -74.6351 main 234 205 P_____________ AL041913 33.3425 -74.6351 HU 75 1 4 320
1913243N29288 1913 45 NA NA NOT_NAMED 1913-09-02 12:00:00 TS 33.5000 -74.8000 75 hurdat_atl main 205 177 O_____________ hurdat_atl AL041913 33.5000 -74.8000 HU 75 1 5 320
1913243N29288 1913 45 NA NA NOT_NAMED 1913-09-02 15:00:00 TS 33.6925 -74.9851 main 177 148 P_____________ AL041913 33.6925 -74.9851 HU 75 1 5 320
1913243N29288 1913 45 NA NA NOT_NAMED 1913-09-02 18:00:00 TS 33.9000 -75.2000 75 hurdat_atl main 148 120 O_____________ hurdat_atl AL041913 33.9000 -75.2000 HU 75 1 6 318
1913243N29288 1913 45 NA NA NOT_NAMED 1913-09-02 21:00:00 TS 34.1074 -75.4350 main 120 85 P_____________ AL041913 34.1074 -75.4350 HU 75 1 6 314
1913243N29288 1913 45 NA NA NOT_NAMED 1913-09-03 00:00:00 TS 34.3000 -75.7000 75 hurdat_atl main 85 64 O_____________ hurdat_atl AL041913 34.3000 -75.7000 HU 75 1 6 309
1913243N29288 1913 45 NA NA NOT_NAMED 1913-09-03 03:00:00 TS 34.4563 -75.9588 main 50 21 P_____________ AL041913 34.4563 -75.9588 HU 75 1 6 301
1913243N29288 1913 45 NA NA NOT_NAMED 1913-09-03 06:00:00 TS 34.6000 -76.3000 75 976 hurdat_atl main 21 0 O_____________ hurdat_atl AL041913 34.6000 -76.3000 HU 75 976 1 7 295
1913243N29288 1913 45 NA NA NOT_NAMED 1913-09-03 08:00:00 TS 34.7000 -76.6000 75 976 hurdat_atl main 0 0 O_____________ hurdat_atl AL041913 34.7000 -76.6000 L HU 75 976 1 8 292
1913243N29288 1913 45 NA NA NOT_NAMED 1913-09-03 09:00:00 TS 34.7499 -76.7447 main 0 0 P_____________ AL041913 34.7499 -76.7447 HU 70 1 8 292
1913243N29288 1913 45 NA NA NOT_NAMED 1913-09-03 12:00:00 TS 34.9000 -77.2000 55 hurdat_atl main 0 0 O_____________ hurdat_atl AL041913 34.9000 -77.2000 TS 55 0 9 292
1913243N29288 1913 45 NA NA NOT_NAMED 1913-09-03 15:00:00 TS 35.0782 -77.7579 main 0 0 P_____________ AL041913 35.0782 -77.7579 TS 47 0 10 287
1913243N29288 1913 45 NA NA NOT_NAMED 1913-09-03 18:00:00 TS 35.2000 -78.4000 40 hurdat_atl main 0 0 O_____________ hurdat_atl AL041913 35.2000 -78.4000 TS 40 0 11 275
1913243N29288 1913 45 NA NA NOT_NAMED 1913-09-03 21:00:00 TS 35.1794 -79.0631 main 0 0 P_____________ AL041913 35.1794 -79.0631 TS 35 0 11 265
1913243N29288 1913 45 NA NA NOT_NAMED 1913-09-04 00:00:00 TS 35.1000 -79.8000 30 hurdat_atl main 0 0 O_____________ hurdat_atl AL041913 35.1000 -79.8000 TD 30 -1 13 265
1913243N29288 1913 45 NA NA NOT_NAMED 1913-09-04 03:00:00 TS 35.0793 -80.6039 main 0 0 P_____________ AL041913 35.0793 -80.6039 TD 27 -1 14 266
1913243N29288 1913 45 NA NA NOT_NAMED 1913-09-04 06:00:00 TS 35.0000 -81.5000 25 hurdat_atl main 0 0 O_____________ hurdat_atl AL041913 35.0000 -81.5000 TD 25 -1 16 259
1913243N29288 1913 45 NA NA NOT_NAMED 1913-09-04 09:00:00 TS 34.7919 -82.4797 main 0 0 P_____________ AL041913 34.7919 -82.4797 TD 22 -1 17 253
1913243N29288 1913 45 NA NA NOT_NAMED 1913-09-04 12:00:00 TS 34.5000 -83.5000 20 hurdat_atl main 0 O_____________ hurdat_atl AL041913 34.5000 -83.5000 TD 20 -1 18 251

IBTrACS Databaseについて

本データベースは、米国NOAAが公開する1842年以降の世界の熱帯低気圧のベストトラックデータアーカイブInternational Best Track Archive for Climate Stewardship (IBTrACS)を、ウェブで閲覧しやすい形式に変換したものです。

最終更新日:2021-11-26